CPX435 Details

Departure: Sacramento International Airport (KSMF)
Arrival: Salt Lake City International Airport (KSLC)
Route: SCTWN2 MACUS Q124 BVL WAATS5


Current Weather Information
KSMF 181553Z 33004KT 10SM CLR 11/09 A3002 RMK AO2 SLP163 T01110094
KSLC 181554Z 15005KT 10SM SCT200 BKN230 06/M02 A3020 RMK AO2 SLP222 T00561022